RJAA/NRT METAR and TAF weather

Enter ICAO airport designator
Station Type Date Time Source
RJAA METAR 2019/10/14 05:37 UTC NOAA

RJAA 140537Z 02010KT 8000 -SHRA FEW010 BKN014 18/17 Q1018 RMK 1ST010 7CU014 A3007


Station Type Date Time Source
RJAA Decoded METAR 2019/10/14 05:37 UTC NOAA

New Tokyo Inter-National Airport, Japan (RJAA) 35-46N 140-23E 44M
Oct 14, 2019 - 01:37 AM EDT / 2019.10.14 0537 UTC
Wind: from the NNE (020 degrees) at 12 MPH (10 KT):0
Visibility: 4 mile(s):0
Sky conditions: mostly cloudy
Weather: light rain showers
Temperature: 64 F (18 C)
Dew Point: 62 F (17 C)
Relative Humidity: 93%
Pressure (altimeter): 30.06 in. Hg (1018 hPa)
ob: RJAA 140537Z 02010KT 8000 -SHRA FEW010 BKN014 18/17 Q1018 RMK 1ST010 7CU014 A3007
cycle: 5

Station Type Date Time Source
RJAA TAF 2019/10/14 06:30 UTC NOAA

TAF TAF RJAA 140505Z 1406/1512 02012KT 8000 -RA FEW008 BKN015
TEMPO 1406/1411 4000 -RA BR FEW005 BKN008
BECMG 1411/1413 4000 -RA BR FEW005 BKN008
TEMPO 1411/1415 FEW003 BKN005
TEMPO 1415/1421 3000 -RA BR FEW003 BKN005
BECMG 1421/1500 9999 NSW FEW020 BKN040

Example: see airport list